sensor_id;sensor_type;location;lat;lon;timestamp;P1;durP1;ratioP1;P2;durP2;ratioP2
13493;SDS011;6819;50.886;4.332;2023-03-03T00:01:12;24.55;;;11.63;;
13493;SDS011;6819;50.886;4.332;2023-03-03T00:03:38;22.40;;;10.70;;
13493;SDS011;6819;50.886;4.332;2023-03-03T00:06:04;31.38;;;11.63;;
13493;SDS011;6819;50.886;4.332;2023-03-03T00:08:30;24.17;;;11.18;;
13493;SDS011;6819;50.886;4.332;2023-03-03T00:10:57;22.75;;;10.68;;
13493;SDS011;6819;50.886;4.332;2023-03-03T00:13:25;22.38;;;11.40;;
13493;SDS011;6819;50.886;4.332;2023-03-03T00:15:52;25.20;;;11.15;;
13493;SDS011;6819;50.886;4.332;2023-03-03T00:18:20;25.40;;;11.55;;
13493;SDS011;6819;50.886;4.332;2023-03-03T00:20:47;23.35;;;11.32;;
13493;SDS011;6819;50.886;4.332;2023-03-03T00:25:46;24.52;;;10.63;;
13493;SDS011;6819;50.886;4.332;2023-03-03T00:30:40;20.88;;;10.55;;
13493;SDS011;6819;50.886;4.332;2023-03-03T00:35:47;26.05;;;11.13;;
13493;SDS011;6819;50.886;4.332;2023-03-03T00:38:15;24.73;;;10.13;;
13493;SDS011;6819;50.886;4.332;2023-03-03T00:40:42;23.83;;;10.38;;
13493;SDS011;6819;50.886;4.332;2023-03-03T00:43:21;23.85;;;10.85;;
13493;SDS011;6819;50.886;4.332;2023-03-03T00:50:49;20.25;;;9.60;;
13493;SDS011;6819;50.886;4.332;2023-03-03T00:53:16;20.15;;;10.93;;
13493;SDS011;6819;50.886;4.332;2023-03-03T00:55:43;25.38;;;11.10;;
13493;SDS011;6819;50.886;4.332;2023-03-03T00:58:09;25.38;;;10.63;;
13493;SDS011;6819;50.886;4.332;2023-03-03T01:00:35;24.08;;;11.20;;
13493;SDS011;6819;50.886;4.332;2023-03-03T01:03:06;19.52;;;10.85;;
13493;SDS011;6819;50.886;4.332;2023-03-03T01:05:32;20.63;;;9.90;;
13493;SDS011;6819;50.886;4.332;2023-03-03T01:07:58;24.85;;;10.88;;
13493;SDS011;6819;50.886;4.332;2023-03-03T01:10:25;24.63;;;11.15;;
13493;SDS011;6819;50.886;4.332;2023-03-03T01:12:52;24.90;;;10.30;;
13493;SDS011;6819;50.886;4.332;2023-03-03T01:15:18;25.10;;;11.73;;
13493;SDS011;6819;50.886;4.332;2023-03-03T01:17:44;23.33;;;11.10;;
13493;SDS011;6819;50.886;4.332;2023-03-03T01:20:12;28.60;;;11.48;;
13493;SDS011;6819;50.886;4.332;2023-03-03T01:22:38;21.88;;;11.30;;
13493;SDS011;6819;50.886;4.332;2023-03-03T01:25:04;22.48;;;11.70;;
13493;SDS011;6819;50.886;4.332;2023-03-03T01:27:30;24.75;;;11.65;;
13493;SDS011;6819;50.886;4.332;2023-03-03T01:29:57;25.00;;;12.15;;
13493;SDS011;6819;50.886;4.332;2023-03-03T01:32:24;29.15;;;11.35;;
13493;SDS011;6819;50.886;4.332;2023-03-03T01:34:50;25.30;;;10.98;;
13493;SDS011;6819;50.886;4.332;2023-03-03T01:37:16;25.52;;;12.30;;
13493;SDS011;6819;50.886;4.332;2023-03-03T01:39:42;22.80;;;10.65;;
13493;SDS011;6819;50.886;4.332;2023-03-03T01:42:12;23.05;;;11.45;;
13493;SDS011;6819;50.886;4.332;2023-03-03T01:44:39;27.10;;;11.93;;
13493;SDS011;6819;50.886;4.332;2023-03-03T01:47:10;22.98;;;11.23;;
13493;SDS011;6819;50.886;4.332;2023-03-03T01:49:43;25.98;;;11.80;;
13493;SDS011;6819;50.886;4.332;2023-03-03T01:52:32;23.83;;;11.07;;
13493;SDS011;6819;50.886;4.332;2023-03-03T01:55:02;24.25;;;10.45;;
13493;SDS011;6819;50.886;4.332;2023-03-03T01:57:33;21.50;;;10.18;;
13493;SDS011;6819;50.886;4.332;2023-03-03T02:00:00;27.17;;;12.40;;
13493;SDS011;6819;50.886;4.332;2023-03-03T02:02:26;30.25;;;12.80;;
13493;SDS011;6819;50.886;4.332;2023-03-03T02:04:53;28.13;;;12.43;;
13493;SDS011;6819;50.886;4.332;2023-03-03T02:07:19;27.27;;;11.80;;
13493;SDS011;6819;50.886;4.332;2023-03-03T02:10:10;22.30;;;10.90;;
13493;SDS011;6819;50.886;4.332;2023-03-03T02:17:44;30.67;;;11.95;;
13493;SDS011;6819;50.886;4.332;2023-03-03T02:20:13;30.00;;;11.80;;
13493;SDS011;6819;50.886;4.332;2023-03-03T02:22:53;26.52;;;11.75;;
13493;SDS011;6819;50.886;4.332;2023-03-03T02:25:26;28.75;;;13.45;;
13493;SDS011;6819;50.886;4.332;2023-03-03T02:27:56;35.33;;;14.07;;
13493;SDS011;6819;50.886;4.332;2023-03-03T02:30:22;30.45;;;12.88;;
13493;SDS011;6819;50.886;4.332;2023-03-03T02:32:49;30.13;;;13.05;;
13493;SDS011;6819;50.886;4.332;2023-03-03T02:40:16;29.05;;;12.05;;
13493;SDS011;6819;50.886;4.332;2023-03-03T02:42:46;31.98;;;14.02;;
13493;SDS011;6819;50.886;4.332;2023-03-03T02:45:13;29.73;;;12.15;;
13493;SDS011;6819;50.886;4.332;2023-03-03T02:47:39;35.15;;;13.70;;
13493;SDS011;6819;50.886;4.332;2023-03-03T02:50:05;26.45;;;12.55;;
13493;SDS011;6819;50.886;4.332;2023-03-03T02:52:31;30.45;;;13.07;;
13493;SDS011;6819;50.886;4.332;2023-03-03T02:54:57;26.63;;;12.38;;
13493;SDS011;6819;50.886;4.332;2023-03-03T02:57:23;25.48;;;12.20;;
13493;SDS011;6819;50.886;4.332;2023-03-03T02:59:49;27.65;;;13.25;;
13493;SDS011;6819;50.886;4.332;2023-03-03T03:02:15;29.83;;;13.57;;
13493;SDS011;6819;50.886;4.332;2023-03-03T03:04:43;29.25;;;13.10;;
13493;SDS011;6819;50.886;4.332;2023-03-03T03:07:09;28.25;;;12.68;;
13493;SDS011;6819;50.886;4.332;2023-03-03T03:09:35;29.83;;;11.82;;
13493;SDS011;6819;50.886;4.332;2023-03-03T03:12:01;29.38;;;12.55;;
13493;SDS011;6819;50.886;4.332;2023-03-03T03:14:27;29.27;;;13.73;;
13493;SDS011;6819;50.886;4.332;2023-03-03T03:16:54;34.47;;;13.80;;
13493;SDS011;6819;50.886;4.332;2023-03-03T03:19:20;34.00;;;13.68;;
13493;SDS011;6819;50.886;4.332;2023-03-03T03:21:46;29.58;;;12.75;;
13493;SDS011;6819;50.886;4.332;2023-03-03T03:24:12;32.33;;;14.05;;
13493;SDS011;6819;50.886;4.332;2023-03-03T03:26:38;33.47;;;13.40;;
13493;SDS011;6819;50.886;4.332;2023-03-03T03:29:04;27.40;;;13.30;;
13493;SDS011;6819;50.886;4.332;2023-03-03T03:31:31;37.38;;;15.57;;
13493;SDS011;6819;50.886;4.332;2023-03-03T03:33:57;36.80;;;16.33;;
13493;SDS011;6819;50.886;4.332;2023-03-03T03:36:24;35.47;;;15.10;;
13493;SDS011;6819;50.886;4.332;2023-03-03T03:38:52;33.47;;;14.25;;
13493;SDS011;6819;50.886;4.332;2023-03-03T03:41:18;32.63;;;14.32;;
13493;SDS011;6819;50.886;4.332;2023-03-03T03:43:44;29.58;;;12.90;;
13493;SDS011;6819;50.886;4.332;2023-03-03T03:46:10;32.00;;;14.45;;
13493;SDS011;6819;50.886;4.332;2023-03-03T03:48:37;36.13;;;13.75;;
13493;SDS011;6819;50.886;4.332;2023-03-03T03:51:03;32.50;;;13.95;;
13493;SDS011;6819;50.886;4.332;2023-03-03T03:53:29;34.85;;;13.60;;
13493;SDS011;6819;50.886;4.332;2023-03-03T03:55:55;34.72;;;13.63;;
13493;SDS011;6819;50.886;4.332;2023-03-03T03:58:21;33.55;;;14.90;;
13493;SDS011;6819;50.886;4.332;2023-03-03T04:00:47;34.42;;;13.55;;
13493;SDS011;6819;50.886;4.332;2023-03-03T04:03:13;34.03;;;13.18;;
13493;SDS011;6819;50.886;4.332;2023-03-03T04:05:39;35.55;;;12.68;;
13493;SDS011;6819;50.886;4.332;2023-03-03T04:08:05;30.92;;;12.90;;
13493;SDS011;6819;50.886;4.332;2023-03-03T04:10:31;31.92;;;13.68;;
13493;SDS011;6819;50.886;4.332;2023-03-03T04:12:57;33.63;;;14.07;;
13493;SDS011;6819;50.886;4.332;2023-03-03T04:15:24;31.60;;;13.75;;
13493;SDS011;6819;50.886;4.332;2023-03-03T04:17:50;35.33;;;14.70;;
13493;SDS011;6819;50.886;4.332;2023-03-03T04:20:16;35.28;;;14.45;;
13493;SDS011;6819;50.886;4.332;2023-03-03T04:22:42;34.25;;;13.15;;
13493;SDS011;6819;50.886;4.332;2023-03-03T04:25:09;31.15;;;13.65;;
13493;SDS011;6819;50.886;4.332;2023-03-03T04:27:38;32.63;;;13.38;;
13493;SDS011;6819;50.886;4.332;2023-03-03T04:30:04;30.63;;;14.15;;
13493;SDS011;6819;50.886;4.332;2023-03-03T04:32:31;36.67;;;14.38;;
13493;SDS011;6819;50.886;4.332;2023-03-03T04:35:00;31.45;;;13.95;;
13493;SDS011;6819;50.886;4.332;2023-03-03T04:37:26;32.65;;;13.77;;
13493;SDS011;6819;50.886;4.332;2023-03-03T04:39:52;33.83;;;14.30;;
13493;SDS011;6819;50.886;4.332;2023-03-03T04:42:18;32.22;;;13.80;;
13493;SDS011;6819;50.886;4.332;2023-03-03T04:44:44;27.75;;;12.70;;
13493;SDS011;6819;50.886;4.332;2023-03-03T04:47:10;28.17;;;13.05;;
13493;SDS011;6819;50.886;4.332;2023-03-03T04:49:36;36.38;;;13.88;;
13493;SDS011;6819;50.886;4.332;2023-03-03T04:52:03;35.50;;;13.73;;
13493;SDS011;6819;50.886;4.332;2023-03-03T04:54:29;35.25;;;13.35;;
13493;SDS011;6819;50.886;4.332;2023-03-03T04:56:55;38.28;;;15.43;;
13493;SDS011;6819;50.886;4.332;2023-03-03T04:59:22;30.85;;;13.95;;
13493;SDS011;6819;50.886;4.332;2023-03-03T05:01:48;33.45;;;13.73;;
13493;SDS011;6819;50.886;4.332;2023-03-03T05:04:15;32.50;;;13.77;;
13493;SDS011;6819;50.886;4.332;2023-03-03T05:06:41;33.92;;;14.00;;
13493;SDS011;6819;50.886;4.332;2023-03-03T05:09:07;38.40;;;13.68;;
13493;SDS011;6819;50.886;4.332;2023-03-03T05:11:33;34.80;;;13.35;;
13493;SDS011;6819;50.886;4.332;2023-03-03T05:14:00;35.65;;;14.88;;
13493;SDS011;6819;50.886;4.332;2023-03-03T05:16:27;35.63;;;13.65;;
13493;SDS011;6819;50.886;4.332;2023-03-03T05:18:53;32.83;;;13.13;;
13493;SDS011;6819;50.886;4.332;2023-03-03T05:21:19;32.38;;;13.35;;
13493;SDS011;6819;50.886;4.332;2023-03-03T05:23:45;37.78;;;14.75;;
13493;SDS011;6819;50.886;4.332;2023-03-03T05:26:11;32.47;;;13.80;;
13493;SDS011;6819;50.886;4.332;2023-03-03T05:28:37;35.65;;;14.15;;
13493;SDS011;6819;50.886;4.332;2023-03-03T05:31:03;38.08;;;14.82;;
13493;SDS011;6819;50.886;4.332;2023-03-03T05:33:29;36.88;;;14.07;;
13493;SDS011;6819;50.886;4.332;2023-03-03T05:35:56;37.67;;;14.85;;
13493;SDS011;6819;50.886;4.332;2023-03-03T05:38:22;36.20;;;15.88;;
13493;SDS011;6819;50.886;4.332;2023-03-03T05:40:49;39.00;;;15.60;;
13493;SDS011;6819;50.886;4.332;2023-03-03T05:43:15;36.50;;;14.98;;
13493;SDS011;6819;50.886;4.332;2023-03-03T05:45:41;41.75;;;15.55;;
13493;SDS011;6819;50.886;4.332;2023-03-03T05:48:07;43.25;;;15.85;;
13493;SDS011;6819;50.886;4.332;2023-03-03T05:50:34;39.42;;;14.90;;
13493;SDS011;6819;50.886;4.332;2023-03-03T05:53:01;31.27;;;14.43;;
13493;SDS011;6819;50.886;4.332;2023-03-03T05:55:27;34.78;;;15.45;;
13493;SDS011;6819;50.886;4.332;2023-03-03T05:57:53;35.85;;;15.32;;
13493;SDS011;6819;50.886;4.332;2023-03-03T06:00:19;38.70;;;15.10;;
13493;SDS011;6819;50.886;4.332;2023-03-03T06:02:45;34.53;;;14.18;;
13493;SDS011;6819;50.886;4.332;2023-03-03T06:05:11;31.77;;;12.57;;
13493;SDS011;6819;50.886;4.332;2023-03-03T06:07:37;31.52;;;13.07;;
13493;SDS011;6819;50.886;4.332;2023-03-03T06:10:04;38.85;;;13.90;;
13493;SDS011;6819;50.886;4.332;2023-03-03T06:12:30;36.95;;;13.57;;
13493;SDS011;6819;50.886;4.332;2023-03-03T06:14:56;27.50;;;12.10;;
13493;SDS011;6819;50.886;4.332;2023-03-03T06:17:22;32.17;;;12.60;;
13493;SDS011;6819;50.886;4.332;2023-03-03T06:19:48;30.92;;;13.02;;
13493;SDS011;6819;50.886;4.332;2023-03-03T06:22:14;31.88;;;13.88;;
13493;SDS011;6819;50.886;4.332;2023-03-03T06:24:40;32.05;;;12.88;;
13493;SDS011;6819;50.886;4.332;2023-03-03T06:27:06;32.13;;;14.10;;
13493;SDS011;6819;50.886;4.332;2023-03-03T06:29:32;28.13;;;12.10;;
13493;SDS011;6819;50.886;4.332;2023-03-03T06:31:58;35.58;;;13.93;;
13493;SDS011;6819;50.886;4.332;2023-03-03T06:34:24;31.70;;;13.63;;
13493;SDS011;6819;50.886;4.332;2023-03-03T06:36:50;30.50;;;12.85;;
13493;SDS011;6819;50.886;4.332;2023-03-03T06:39:16;26.40;;;11.45;;
13493;SDS011;6819;50.886;4.332;2023-03-03T06:41:42;28.52;;;12.35;;
13493;SDS011;6819;50.886;4.332;2023-03-03T06:44:08;25.48;;;11.30;;
13493;SDS011;6819;50.886;4.332;2023-03-03T06:46:36;28.60;;;11.18;;
13493;SDS011;6819;50.886;4.332;2023-03-03T06:49:02;28.42;;;10.88;;
13493;SDS011;6819;50.886;4.332;2023-03-03T06:51:35;26.17;;;11.30;;
13493;SDS011;6819;50.886;4.332;2023-03-03T06:54:10;26.77;;;11.32;;
13493;SDS011;6819;50.886;4.332;2023-03-03T06:56:37;26.08;;;10.65;;
13493;SDS011;6819;50.886;4.332;2023-03-03T06:59:16;28.08;;;11.00;;
13493;SDS011;6819;50.886;4.332;2023-03-03T07:01:44;23.83;;;11.55;;
13493;SDS011;6819;50.886;4.332;2023-03-03T07:04:14;28.35;;;12.00;;
13493;SDS011;6819;50.886;4.332;2023-03-03T07:06:41;30.83;;;13.02;;
13493;SDS011;6819;50.886;4.332;2023-03-03T07:09:13;26.48;;;11.15;;
13493;SDS011;6819;50.886;4.332;2023-03-03T07:11:40;30.15;;;11.93;;
13493;SDS011;6819;50.886;4.332;2023-03-03T07:14:09;30.42;;;11.32;;
13493;SDS011;6819;50.886;4.332;2023-03-03T07:16:38;29.38;;;11.88;;
13493;SDS011;6819;50.886;4.332;2023-03-03T07:19:08;26.73;;;11.07;;
13493;SDS011;6819;50.886;4.332;2023-03-03T07:21:39;27.15;;;11.60;;
13493;SDS011;6819;50.886;4.332;2023-03-03T07:24:25;28.67;;;11.63;;
13493;SDS011;6819;50.886;4.332;2023-03-03T07:26:53;29.52;;;12.25;;
13493;SDS011;6819;50.886;4.332;2023-03-03T07:29:26;26.15;;;11.43;;
13493;SDS011;6819;50.886;4.332;2023-03-03T07:31:55;30.80;;;11.38;;
13493;SDS011;6819;50.886;4.332;2023-03-03T07:34:23;26.70;;;10.88;;
13493;SDS011;6819;50.886;4.332;2023-03-03T07:36:53;30.55;;;11.63;;
13493;SDS011;6819;50.886;4.332;2023-03-03T07:39:24;27.80;;;10.93;;
13493;SDS011;6819;50.886;4.332;2023-03-03T07:41:50;24.90;;;11.13;;
13493;SDS011;6819;50.886;4.332;2023-03-03T07:44:20;22.88;;;10.27;;
13493;SDS011;6819;50.886;4.332;2023-03-03T07:46:47;28.75;;;11.48;;
13493;SDS011;6819;50.886;4.332;2023-03-03T07:49:21;29.90;;;11.13;;
13493;SDS011;6819;50.886;4.332;2023-03-03T07:51:51;32.90;;;13.65;;
13493;SDS011;6819;50.886;4.332;2023-03-03T07:56:52;29.13;;;11.15;;
13493;SDS011;6819;50.886;4.332;2023-03-03T07:59:22;34.83;;;12.13;;
13493;SDS011;6819;50.886;4.332;2023-03-03T08:01:52;30.35;;;12.02;;
13493;SDS011;6819;50.886;4.332;2023-03-03T08:06:59;28.33;;;12.38;;
13493;SDS011;6819;50.886;4.332;2023-03-03T08:09:40;28.20;;;11.63;;
13493;SDS011;6819;50.886;4.332;2023-03-03T08:12:26;30.08;;;12.13;;
13493;SDS011;6819;50.886;4.332;2023-03-03T08:14:53;27.50;;;11.85;;
13493;SDS011;6819;50.886;4.332;2023-03-03T08:17:21;31.85;;;11.48;;
13493;SDS011;6819;50.886;4.332;2023-03-03T08:19:48;30.48;;;11.63;;
13493;SDS011;6819;50.886;4.332;2023-03-03T08:22:15;28.15;;;11.85;;
13493;SDS011;6819;50.886;4.332;2023-03-03T08:24:42;27.15;;;10.88;;
13493;SDS011;6819;50.886;4.332;2023-03-03T08:27:08;29.15;;;11.82;;
13493;SDS011;6819;50.886;4.332;2023-03-03T08:29:34;28.77;;;12.10;;
13493;SDS011;6819;50.886;4.332;2023-03-03T08:32:00;26.60;;;11.23;;
13493;SDS011;6819;50.886;4.332;2023-03-03T08:34:26;30.52;;;12.85;;
13493;SDS011;6819;50.886;4.332;2023-03-03T08:36:52;28.85;;;10.75;;
13493;SDS011;6819;50.886;4.332;2023-03-03T08:39:20;31.00;;;11.55;;
13493;SDS011;6819;50.886;4.332;2023-03-03T08:41:46;25.83;;;10.50;;
13493;SDS011;6819;50.886;4.332;2023-03-03T08:44:12;27.70;;;11.80;;
13493;SDS011;6819;50.886;4.332;2023-03-03T08:46:39;22.85;;;10.40;;
13493;SDS011;6819;50.886;4.332;2023-03-03T08:49:05;26.38;;;10.02;;
13493;SDS011;6819;50.886;4.332;2023-03-03T08:51:31;24.73;;;10.65;;
13493;SDS011;6819;50.886;4.332;2023-03-03T08:53:58;26.85;;;10.15;;
13493;SDS011;6819;50.886;4.332;2023-03-03T08:56:24;27.48;;;10.32;;
13493;SDS011;6819;50.886;4.332;2023-03-03T08:58:51;27.40;;;10.70;;
13493;SDS011;6819;50.886;4.332;2023-03-03T09:01:17;29.88;;;12.32;;
13493;SDS011;6819;50.886;4.332;2023-03-03T09:03:43;26.98;;;10.45;;
13493;SDS011;6819;50.886;4.332;2023-03-03T09:06:09;23.92;;;9.82;;
13493;SDS011;6819;50.886;4.332;2023-03-03T09:08:35;22.63;;;9.93;;
13493;SDS011;6819;50.886;4.332;2023-03-03T09:11:02;23.50;;;9.70;;
13493;SDS011;6819;50.886;4.332;2023-03-03T09:13:28;24.65;;;9.77;;
13493;SDS011;6819;50.886;4.332;2023-03-03T09:15:55;23.13;;;9.77;;
13493;SDS011;6819;50.886;4.332;2023-03-03T09:18:35;22.58;;;8.68;;
13493;SDS011;6819;50.886;4.332;2023-03-03T09:21:05;29.33;;;9.75;;
13493;SDS011;6819;50.886;4.332;2023-03-03T09:23:42;27.20;;;9.95;;
13493;SDS011;6819;50.886;4.332;2023-03-03T09:26:28;20.42;;;8.82;;
13493;SDS011;6819;50.886;4.332;2023-03-03T09:31:41;23.70;;;9.48;;
13493;SDS011;6819;50.886;4.332;2023-03-03T09:36:40;20.52;;;9.02;;
13493;SDS011;6819;50.886;4.332;2023-03-03T09:39:16;20.67;;;9.48;;
13493;SDS011;6819;50.886;4.332;2023-03-03T09:51:49;22.95;;;9.18;;
13493;SDS011;6819;50.886;4.332;2023-03-03T09:54:39;27.35;;;9.30;;
13493;SDS011;6819;50.886;4.332;2023-03-03T09:59:47;18.88;;;8.02;;
13493;SDS011;6819;50.886;4.332;2023-03-03T10:02:37;27.50;;;9.95;;
13493;SDS011;6819;50.886;4.332;2023-03-03T10:23:16;27.58;;;10.82;;
13493;SDS011;6819;50.886;4.332;2023-03-03T10:31:10;27.77;;;10.77;;
13493;SDS011;6819;50.886;4.332;2023-03-03T10:41:34;25.88;;;10.05;;
13493;SDS011;6819;50.886;4.332;2023-03-03T10:46:37;23.85;;;10.25;;
13493;SDS011;6819;50.886;4.332;2023-03-03T10:52:01;22.33;;;9.85;;
13493;SDS011;6819;50.886;4.332;2023-03-03T10:54:31;27.90;;;10.20;;
13493;SDS011;6819;50.886;4.332;2023-03-03T11:12:31;35.20;;;10.02;;
13493;SDS011;6819;50.886;4.332;2023-03-03T11:17:31;19.20;;;8.07;;
13493;SDS011;6819;50.886;4.332;2023-03-03T11:32:58;23.75;;;9.75;;
13493;SDS011;6819;50.886;4.332;2023-03-03T11:35:34;31.58;;;9.20;;
13493;SDS011;6819;50.886;4.332;2023-03-03T11:40:29;22.90;;;9.80;;
13493;SDS011;6819;50.886;4.332;2023-03-03T11:45:49;24.55;;;10.50;;
13493;SDS011;6819;50.886;4.332;2023-03-03T11:48:20;23.02;;;9.02;;
13493;SDS011;6819;50.886;4.332;2023-03-03T11:51:05;22.40;;;8.60;;
13493;SDS011;6819;50.886;4.332;2023-03-03T11:56:07;20.00;;;8.25;;
13493;SDS011;6819;50.886;4.332;2023-03-03T11:58:46;21.88;;;9.00;;
13493;SDS011;6819;50.886;4.332;2023-03-03T12:01:17;20.33;;;8.00;;
13493;SDS011;6819;50.886;4.332;2023-03-03T12:04:00;19.20;;;8.55;;
13493;SDS011;6819;50.886;4.332;2023-03-03T12:06:52;21.73;;;9.00;;
13493;SDS011;6819;50.886;4.332;2023-03-03T12:14:49;19.73;;;8.27;;
13493;SDS011;6819;50.886;4.332;2023-03-03T12:30:15;23.25;;;8.93;;
13493;SDS011;6819;50.886;4.332;2023-03-03T12:32:47;16.75;;;7.90;;
13493;SDS011;6819;50.886;4.332;2023-03-03T12:37:46;23.35;;;9.25;;
13493;SDS011;6819;50.886;4.332;2023-03-03T12:50:33;18.20;;;8.85;;
13493;SDS011;6819;50.886;4.332;2023-03-03T12:53:11;17.13;;;7.90;;
13493;SDS011;6819;50.886;4.332;2023-03-03T13:10:41;19.52;;;8.32;;
13493;SDS011;6819;50.886;4.332;2023-03-03T13:20:59;21.73;;;9.38;;
13493;SDS011;6819;50.886;4.332;2023-03-03T13:31:19;25.13;;;9.90;;
13493;SDS011;6819;50.886;4.332;2023-03-03T13:33:56;24.85;;;9.65;;
13493;SDS011;6819;50.886;4.332;2023-03-03T13:36:40;19.38;;;9.95;;
13493;SDS011;6819;50.886;4.332;2023-03-03T13:39:18;17.58;;;9.32;;
13493;SDS011;6819;50.886;4.332;2023-03-03T13:41:55;16.27;;;8.45;;
13493;SDS011;6819;50.886;4.332;2023-03-03T13:51:45;18.52;;;9.63;;
13493;SDS011;6819;50.886;4.332;2023-03-03T14:02:00;19.77;;;9.75;;
13493;SDS011;6819;50.886;4.332;2023-03-03T14:07:00;15.10;;;8.40;;
13493;SDS011;6819;50.886;4.332;2023-03-03T14:09:36;16.10;;;8.55;;
13493;SDS011;6819;50.886;4.332;2023-03-03T14:20:00;16.90;;;9.05;;
13493;SDS011;6819;50.886;4.332;2023-03-03T14:22:40;14.35;;;8.02;;
13493;SDS011;6819;50.886;4.332;2023-03-03T14:25:12;13.60;;;8.07;;
13493;SDS011;6819;50.886;4.332;2023-03-03T14:27:40;15.98;;;8.60;;
13493;SDS011;6819;50.886;4.332;2023-03-03T14:33:20;15.20;;;8.27;;
13493;SDS011;6819;50.886;4.332;2023-03-03T14:35:51;16.55;;;8.85;;
13493;SDS011;6819;50.886;4.332;2023-03-03T14:43:33;15.30;;;7.90;;
13493;SDS011;6819;50.886;4.332;2023-03-03T14:48:54;17.67;;;7.47;;
13493;SDS011;6819;50.886;4.332;2023-03-03T14:53:50;14.77;;;7.50;;
13493;SDS011;6819;50.886;4.332;2023-03-03T14:58:52;15.30;;;7.95;;
13493;SDS011;6819;50.886;4.332;2023-03-03T15:06:37;13.43;;;7.75;;
13493;SDS011;6819;50.886;4.332;2023-03-03T15:11:47;15.93;;;7.15;;
13493;SDS011;6819;50.886;4.332;2023-03-03T15:14:15;13.90;;;7.03;;
13493;SDS011;6819;50.886;4.332;2023-03-03T15:16:41;12.95;;;7.15;;
13493;SDS011;6819;50.886;4.332;2023-03-03T15:21:43;12.45;;;7.13;;
13493;SDS011;6819;50.886;4.332;2023-03-03T15:24:18;13.55;;;6.88;;
13493;SDS011;6819;50.886;4.332;2023-03-03T15:26:51;10.93;;;6.38;;
13493;SDS011;6819;50.886;4.332;2023-03-03T15:29:31;12.93;;;6.93;;
13493;SDS011;6819;50.886;4.332;2023-03-03T15:32:07;10.68;;;6.43;;
13493;SDS011;6819;50.886;4.332;2023-03-03T15:34:37;11.35;;;6.60;;
13493;SDS011;6819;50.886;4.332;2023-03-03T15:37:11;11.10;;;6.45;;
13493;SDS011;6819;50.886;4.332;2023-03-03T15:57:20;10.10;;;6.15;;
13493;SDS011;6819;50.886;4.332;2023-03-03T15:59:57;8.38;;;5.38;;
13493;SDS011;6819;50.886;4.332;2023-03-03T16:02:38;15.07;;;5.72;;
13493;SDS011;6819;50.886;4.332;2023-03-03T16:05:24;9.30;;;5.95;;
13493;SDS011;6819;50.886;4.332;2023-03-03T16:10:19;9.63;;;5.80;;
13493;SDS011;6819;50.886;4.332;2023-03-03T16:12:52;9.73;;;5.85;;
13493;SDS011;6819;50.886;4.332;2023-03-03T16:18:16;9.02;;;5.18;;
13493;SDS011;6819;50.886;4.332;2023-03-03T16:28:18;11.73;;;5.30;;
13493;SDS011;6819;50.886;4.332;2023-03-03T16:33:32;10.32;;;5.45;;
13493;SDS011;6819;50.886;4.332;2023-03-03T16:38:39;8.63;;;5.10;;
13493;SDS011;6819;50.886;4.332;2023-03-03T16:41:09;9.63;;;4.93;;
13493;SDS011;6819;50.886;4.332;2023-03-03T16:43:42;10.18;;;4.82;;
13493;SDS011;6819;50.886;4.332;2023-03-03T16:48:53;9.23;;;4.55;;
13493;SDS011;6819;50.886;4.332;2023-03-03T16:51:37;8.95;;;4.60;;
13493;SDS011;6819;50.886;4.332;2023-03-03T16:54:10;7.72;;;4.72;;
13493;SDS011;6819;50.886;4.332;2023-03-03T16:56:47;8.85;;;5.07;;
13493;SDS011;6819;50.886;4.332;2023-03-03T16:59:29;7.50;;;4.40;;
13493;SDS011;6819;50.886;4.332;2023-03-03T17:04:45;9.40;;;4.70;;
13493;SDS011;6819;50.886;4.332;2023-03-03T17:17:56;11.05;;;5.20;;
13493;SDS011;6819;50.886;4.332;2023-03-03T17:21:24;10.15;;;5.40;;
13493;SDS011;6819;50.886;4.332;2023-03-03T17:23:22;17.90;;;6.17;;
13493;SDS011;6819;50.886;4.332;2023-03-03T17:25:58;10.40;;;6.05;;
13493;SDS011;6819;50.886;4.332;2023-03-03T17:36:39;9.73;;;4.32;;
13493;SDS011;6819;50.886;4.332;2023-03-03T17:41:41;10.00;;;4.90;;
13493;SDS011;6819;50.886;4.332;2023-03-03T17:44:27;11.30;;;5.40;;
13493;SDS011;6819;50.886;4.332;2023-03-03T17:46:59;12.60;;;5.38;;
13493;SDS011;6819;50.886;4.332;2023-03-03T17:49:49;11.82;;;5.22;;
13493;SDS011;6819;50.886;4.332;2023-03-03T17:55:19;13.52;;;5.53;;
13493;SDS011;6819;50.886;4.332;2023-03-03T17:57:54;14.82;;;6.70;;
13493;SDS011;6819;50.886;4.332;2023-03-03T18:00:27;11.68;;;5.65;;
13493;SDS011;6819;50.886;4.332;2023-03-03T18:11:32;17.65;;;6.88;;
13493;SDS011;6819;50.886;4.332;2023-03-03T18:16:32;14.55;;;6.70;;
13493;SDS011;6819;50.886;4.332;2023-03-03T18:19:11;19.45;;;7.00;;
13493;SDS011;6819;50.886;4.332;2023-03-03T18:26:43;11.50;;;5.68;;
13493;SDS011;6819;50.886;4.332;2023-03-03T18:29:11;12.75;;;6.38;;
13493;SDS011;6819;50.886;4.332;2023-03-03T18:36:54;9.25;;;6.03;;
13493;SDS011;6819;50.886;4.332;2023-03-03T18:44:34;17.20;;;6.15;;
13493;SDS011;6819;50.886;4.332;2023-03-03T18:47:00;13.23;;;6.00;;
13493;SDS011;6819;50.886;4.332;2023-03-03T18:57:37;12.75;;;6.65;;
13493;SDS011;6819;50.886;4.332;2023-03-03T19:02:50;17.63;;;5.45;;
13493;SDS011;6819;50.886;4.332;2023-03-03T19:05:19;12.38;;;5.25;;
13493;SDS011;6819;50.886;4.332;2023-03-03T19:07:57;14.55;;;5.18;;
13493;SDS011;6819;50.886;4.332;2023-03-03T19:10:42;11.55;;;6.15;;
13493;SDS011;6819;50.886;4.332;2023-03-03T19:15:56;8.07;;;4.68;;
13493;SDS011;6819;50.886;4.332;2023-03-03T19:18:24;12.23;;;5.18;;
13493;SDS011;6819;50.886;4.332;2023-03-03T19:20:56;17.35;;;8.95;;
13493;SDS011;6819;50.886;4.332;2023-03-03T19:23:30;7.78;;;4.97;;
13493;SDS011;6819;50.886;4.332;2023-03-03T19:28:46;7.85;;;4.72;;
13493;SDS011;6819;50.886;4.332;2023-03-03T19:31:23;8.52;;;3.88;;
13493;SDS011;6819;50.886;4.332;2023-03-03T19:34:01;6.07;;;3.83;;
13493;SDS011;6819;50.886;4.332;2023-03-03T19:46:58;8.32;;;4.78;;
13493;SDS011;6819;50.886;4.332;2023-03-03T19:49:41;7.05;;;4.20;;
13493;SDS011;6819;50.886;4.332;2023-03-03T19:57:26;8.23;;;4.85;;
13493;SDS011;6819;50.886;4.332;2023-03-03T20:00:00;11.27;;;5.38;;
13493;SDS011;6819;50.886;4.332;2023-03-03T20:02:32;9.48;;;5.78;;
13493;SDS011;6819;50.886;4.332;2023-03-03T20:05:06;9.80;;;6.22;;
13493;SDS011;6819;50.886;4.332;2023-03-03T20:07:35;11.77;;;6.25;;
13493;SDS011;6819;50.886;4.332;2023-03-03T20:12:39;15.77;;;6.70;;
13493;SDS011;6819;50.886;4.332;2023-03-03T20:15:13;15.23;;;7.05;;
13493;SDS011;6819;50.886;4.332;2023-03-03T20:17:49;8.75;;;6.60;;
13493;SDS011;6819;50.886;4.332;2023-03-03T20:20:40;10.55;;;5.97;;
13493;SDS011;6819;50.886;4.332;2023-03-03T20:25:47;12.82;;;6.88;;
13493;SDS011;6819;50.886;4.332;2023-03-03T20:33:42;12.17;;;7.07;;
13493;SDS011;6819;50.886;4.332;2023-03-03T20:36:18;11.57;;;6.85;;
13493;SDS011;6819;50.886;4.332;2023-03-03T20:38:56;10.48;;;6.82;;
13493;SDS011;6819;50.886;4.332;2023-03-03T20:46:21;12.80;;;6.45;;
13493;SDS011;6819;50.886;4.332;2023-03-03T20:49:01;12.45;;;7.15;;
13493;SDS011;6819;50.886;4.332;2023-03-03T21:02:03;11.93;;;7.28;;
13493;SDS011;6819;50.886;4.332;2023-03-03T21:04:34;12.45;;;7.00;;
13493;SDS011;6819;50.886;4.332;2023-03-03T21:07:01;10.55;;;7.93;;
13493;SDS011;6819;50.886;4.332;2023-03-03T21:11:57;10.13;;;7.32;;
13493;SDS011;6819;50.886;4.332;2023-03-03T21:14:25;10.85;;;7.07;;
13493;SDS011;6819;50.886;4.332;2023-03-03T21:16:53;13.65;;;8.93;;
13493;SDS011;6819;50.886;4.332;2023-03-03T21:19:34;13.93;;;7.85;;
13493;SDS011;6819;50.886;4.332;2023-03-03T21:22:00;17.63;;;7.28;;
13493;SDS011;6819;50.886;4.332;2023-03-03T21:24:46;14.88;;;7.85;;